createdAt,value
2019-01-30T00:00:15.337Z,0.40
2019-01-30T00:02:56.347Z,0.50
2019-01-30T00:05:37.180Z,0.40
2019-01-30T00:08:18.091Z,0.50
2019-01-30T00:10:58.623Z,0.40
2019-01-30T00:13:39.096Z,0.40
2019-01-30T00:16:19.592Z,0.50
2019-01-30T00:19:00.311Z,0.50
2019-01-30T00:21:41.050Z,0.50
2019-01-30T00:24:22.276Z,0.50
2019-01-30T00:27:03.068Z,0.50
2019-01-30T00:29:43.676Z,0.50
2019-01-30T00:32:24.356Z,0.50
2019-01-30T00:35:05.365Z,0.50
2019-01-30T00:37:45.930Z,0.50
2019-01-30T00:40:26.655Z,0.50
2019-01-30T00:43:07.709Z,0.40
2019-01-30T00:45:48.620Z,0.50
2019-01-30T00:48:29.664Z,0.50
2019-01-30T00:51:10.572Z,0.50
2019-01-30T00:53:51.576Z,0.40
2019-01-30T00:56:32.321Z,0.40
2019-01-30T00:59:13.393Z,0.50
2019-01-30T01:01:54.020Z,0.50
2019-01-30T01:04:34.940Z,0.50
2019-01-30T01:07:15.460Z,0.50
2019-01-30T01:09:56.367Z,0.50
2019-01-30T01:12:37.318Z,0.60
2019-01-30T01:15:17.727Z,0.60
2019-01-30T01:17:58.796Z,0.60
2019-01-30T01:20:39.207Z,0.50
2019-01-30T01:23:19.695Z,0.50
2019-01-30T01:26:00.247Z,0.50
2019-01-30T01:28:40.760Z,0.40
2019-01-30T01:31:21.472Z,0.30
2019-01-30T01:34:02.154Z,0.40
2019-01-30T01:36:42.748Z,0.30
2019-01-30T01:39:23.463Z,0.30
2019-01-30T01:42:03.991Z,0.30
2019-01-30T01:44:44.600Z,0.20
2019-01-30T01:50:09.143Z,0.10
2019-01-30T01:52:49.993Z,0.10
2019-01-30T01:55:30.872Z,0.00
2019-01-30T01:58:11.955Z,0.00
2019-01-30T02:00:52.576Z,-0.10
2019-01-30T02:03:33.241Z,-0.20
2019-01-30T02:06:13.868Z,-0.20
2019-01-30T02:08:54.549Z,-0.10
2019-01-30T02:11:35.164Z,-0.10
2019-01-30T02:14:15.795Z,-0.10
2019-01-30T02:16:56.580Z,-0.10
2019-01-30T02:19:37.728Z,-0.10
2019-01-30T02:22:18.324Z,-0.10
2019-01-30T02:24:58.979Z,0.00
2019-01-30T02:27:40.006Z,0.00
2019-01-30T02:30:20.987Z,0.00
2019-01-30T02:33:01.676Z,0.00
2019-01-30T02:35:42.082Z,0.00
2019-01-30T02:38:22.761Z,0.10
2019-01-30T02:41:03.881Z,0.10
2019-01-30T02:43:44.298Z,0.20
2019-01-30T02:46:24.769Z,0.30
2019-01-30T02:49:06.041Z,0.30
2019-01-30T02:51:46.344Z,0.30
2019-01-30T02:54:27.316Z,0.30
2019-01-30T02:57:07.860Z,0.40
2019-01-30T02:59:48.492Z,0.40
2019-01-30T03:02:29.071Z,0.50
2019-01-30T03:05:09.585Z,0.50
2019-01-30T03:07:50.581Z,0.60
2019-01-30T03:10:30.899Z,0.60
2019-01-30T03:13:11.850Z,0.50
2019-01-30T03:15:53.168Z,0.60
2019-01-30T03:18:34.466Z,0.60
2019-01-30T03:21:15.604Z,0.60
2019-01-30T03:23:55.824Z,0.60
2019-01-30T03:26:36.292Z,0.70
2019-01-30T03:29:17.060Z,0.70
2019-01-30T03:31:57.523Z,0.70
2019-01-30T03:34:38.416Z,0.70
2019-01-30T03:37:19.181Z,0.70
2019-01-30T03:39:59.912Z,0.80
2019-01-30T03:42:40.869Z,0.70
2019-01-30T03:45:21.439Z,0.70
2019-01-30T03:48:02.048Z,0.80
2019-01-30T03:50:42.844Z,0.80
2019-01-30T03:53:23.686Z,0.80
2019-01-30T03:56:04.460Z,0.90
2019-01-30T03:58:45.597Z,0.90
2019-01-30T04:01:27.066Z,0.90
2019-01-30T04:04:07.277Z,0.90
2019-01-30T04:06:47.880Z,0.90
2019-01-30T04:09:28.481Z,0.80
2019-01-30T04:12:09.165Z,0.90
2019-01-30T04:14:50.498Z,1.00
2019-01-30T04:17:31.018Z,1.10
2019-01-30T04:20:11.844Z,1.10
2019-01-30T04:22:52.608Z,1.00
2019-01-30T04:25:32.958Z,1.00
2019-01-30T04:28:13.965Z,1.00
2019-01-30T04:30:54.380Z,0.90
2019-01-30T04:33:34.736Z,1.00
2019-01-30T04:36:15.393Z,1.10
2019-01-30T04:38:55.933Z,1.10
2019-01-30T04:41:36.806Z,1.10
2019-01-30T04:44:17.369Z,1.00
2019-01-30T04:46:58.168Z,0.90
2019-01-30T04:49:38.708Z,0.90
2019-01-30T04:52:19.516Z,0.80
2019-01-30T04:55:00.422Z,0.90
2019-01-30T04:57:41.589Z,0.90
2019-01-30T05:00:22.195Z,0.90
2019-01-30T05:03:02.999Z,1.00
2019-01-30T05:05:43.372Z,1.20
2019-01-30T05:08:24.244Z,1.20
2019-01-30T05:11:04.845Z,1.30
2019-01-30T05:13:45.540Z,1.30
2019-01-30T05:16:25.972Z,1.20
2019-01-30T05:19:06.449Z,1.10
2019-01-30T05:21:47.404Z,1.00
2019-01-30T05:24:27.609Z,1.00
2019-01-30T05:27:08.082Z,0.90
2019-01-30T05:29:48.800Z,0.90
2019-01-30T05:32:29.262Z,0.90
2019-01-30T05:35:09.693Z,1.00
2019-01-30T05:37:51.470Z,1.00
2019-01-30T05:40:31.856Z,1.00
2019-01-30T05:43:12.279Z,0.90
2019-01-30T05:45:52.792Z,0.90
2019-01-30T05:48:33.331Z,1.00
2019-01-30T05:51:13.913Z,0.90
2019-01-30T05:53:54.325Z,1.00
2019-01-30T05:56:34.697Z,1.00
2019-01-30T05:59:15.618Z,1.00
2019-01-30T06:01:55.800Z,1.00
2019-01-30T06:04:36.304Z,1.00
2019-01-30T06:07:17.077Z,1.10
2019-01-30T06:09:58.342Z,1.10
2019-01-30T06:12:39.569Z,1.20
2019-01-30T06:15:20.265Z,1.10
2019-01-30T06:18:01.479Z,1.10
2019-01-30T06:20:41.884Z,1.10
2019-01-30T06:23:22.949Z,1.00
2019-01-30T06:26:03.289Z,1.00
2019-01-30T06:28:43.804Z,1.00
2019-01-30T06:31:27.069Z,1.00
2019-01-30T06:34:07.620Z,1.00
2019-01-30T06:36:47.881Z,1.00
2019-01-30T06:39:28.167Z,1.00
2019-01-30T06:42:09.003Z,1.00
2019-01-30T06:44:49.348Z,0.90
2019-01-30T06:47:30.036Z,0.90
2019-01-30T06:50:10.883Z,0.90
2019-01-30T06:52:51.552Z,0.80
2019-01-30T06:55:32.244Z,0.80
2019-01-30T06:58:13.137Z,0.70
2019-01-30T07:00:53.577Z,0.70
2019-01-30T07:03:34.184Z,0.60
2019-01-30T07:06:14.520Z,0.60
2019-01-30T07:08:55.076Z,0.50
2019-01-30T07:11:35.405Z,0.50
2019-01-30T07:14:15.805Z,0.40
2019-01-30T07:16:56.917Z,0.40
2019-01-30T07:19:37.789Z,0.40
2019-01-30T07:22:18.371Z,0.40
2019-01-30T07:24:59.363Z,0.40
2019-01-30T07:27:40.116Z,0.50
2019-01-30T07:30:20.693Z,0.50
2019-01-30T07:33:00.947Z,0.60
2019-01-30T07:35:41.936Z,0.50
2019-01-30T07:38:22.304Z,0.50
2019-01-30T07:41:03.065Z,0.70
2019-01-30T07:43:43.640Z,0.70
2019-01-30T07:46:24.156Z,0.80
2019-01-30T07:49:04.649Z,0.80
2019-01-30T07:51:45.619Z,0.80
2019-01-30T07:54:26.275Z,0.90
2019-01-30T07:57:07.401Z,0.90
2019-01-30T07:59:47.912Z,0.90
2019-01-30T08:02:28.521Z,0.90
2019-01-30T08:05:09.065Z,0.90
2019-01-30T08:07:49.675Z,0.90
2019-01-30T08:10:30.264Z,0.80
2019-01-30T08:13:11.075Z,0.80
2019-01-30T08:15:52.156Z,0.80
2019-01-30T08:18:32.564Z,0.90
2019-01-30T08:21:12.988Z,0.80
2019-01-30T08:23:53.891Z,0.70
2019-01-30T08:26:34.825Z,0.70
2019-01-30T08:29:15.212Z,0.80
2019-01-30T08:31:55.919Z,0.90
2019-01-30T08:34:36.187Z,0.90
2019-01-30T08:37:16.936Z,1.10
2019-01-30T08:39:57.487Z,1.30
2019-01-30T08:42:38.337Z,1.40
2019-01-30T08:45:19.356Z,1.40
2019-01-30T08:47:59.819Z,1.40
2019-01-30T08:50:40.563Z,1.50
2019-01-30T08:53:20.964Z,1.60
2019-01-30T08:56:01.524Z,1.70
2019-01-30T08:58:42.491Z,1.80
2019-01-30T09:01:22.871Z,1.90
2019-01-30T09:04:03.826Z,2.00
2019-01-30T09:06:44.548Z,2.10
2019-01-30T09:09:25.831Z,2.00
2019-01-30T09:12:06.556Z,1.90
2019-01-30T09:14:46.996Z,2.10
2019-01-30T09:17:27.399Z,2.30
2019-01-30T09:20:08.480Z,2.40
2019-01-30T09:22:48.851Z,2.50
2019-01-30T09:25:29.248Z,2.50
2019-01-30T09:28:09.981Z,2.60
2019-01-30T09:30:51.008Z,2.60
2019-01-30T09:33:31.408Z,2.50
2019-01-30T09:36:11.992Z,2.60
2019-01-30T09:38:52.979Z,2.50
2019-01-30T09:41:34.207Z,2.50
2019-01-30T09:44:14.644Z,2.50
2019-01-30T09:46:55.280Z,2.50
2019-01-30T09:49:36.493Z,2.70
2019-01-30T09:52:26.648Z,2.80
2019-01-30T09:54:59.980Z,2.90
2019-01-30T09:57:40.732Z,2.90
2019-01-30T10:00:21.432Z,3.00
2019-01-30T10:03:01.967Z,3.00
2019-01-30T10:05:42.392Z,3.10
2019-01-30T10:08:23.152Z,3.20
2019-01-30T10:11:04.036Z,3.30
2019-01-30T10:13:45.198Z,3.40
2019-01-30T10:16:26.061Z,3.40
2019-01-30T10:19:06.530Z,3.50
2019-01-30T10:21:47.396Z,3.60
2019-01-30T10:24:26.067Z,3.70
2019-01-30T10:27:13.823Z,3.70
2019-01-30T10:30:01.798Z,3.70
2019-01-30T10:32:49.508Z,3.80
2019-01-30T10:35:37.227Z,3.80
2019-01-30T10:38:24.957Z,3.60
2019-01-30T10:41:12.680Z,3.70
2019-01-30T10:44:00.731Z,3.70
2019-01-30T10:46:48.444Z,3.80
2019-01-30T10:49:27.303Z,3.80
2019-01-30T10:52:15.087Z,3.80
2019-01-30T10:55:03.116Z,3.80
2019-01-30T10:58:11.560Z,3.90
2019-01-30T11:00:59.282Z,3.90
2019-01-30T11:03:56.766Z,4.00
2019-01-30T11:06:36.439Z,3.70
2019-01-30T11:09:24.159Z,3.60
2019-01-30T11:12:12.137Z,3.60
2019-01-30T11:15:02.636Z,3.70
2019-01-30T11:17:49.876Z,3.70
2019-01-30T11:20:37.940Z,3.70
2019-01-30T11:23:25.654Z,3.70
2019-01-30T11:26:13.372Z,3.70
2019-01-30T11:29:01.380Z,3.80
2019-01-30T11:31:49.092Z,3.70
2019-01-30T11:34:37.080Z,3.70
2019-01-30T11:37:25.037Z,3.70
2019-01-30T11:40:32.091Z,3.80
2019-01-30T11:43:19.807Z,3.40
2019-01-30T11:46:07.532Z,3.80
2019-01-30T11:48:56.374Z,3.90
2019-01-30T11:51:37.660Z,3.90
2019-01-30T11:54:18.454Z,3.90
2019-01-30T11:56:58.760Z,3.90
2019-01-30T11:59:39.482Z,3.90
2019-01-30T12:02:20.504Z,3.90
2019-01-30T12:05:00.985Z,3.90
2019-01-30T12:07:41.832Z,3.50
2019-01-30T12:10:22.737Z,3.80
2019-01-30T12:13:03.287Z,3.80
2019-01-30T12:15:44.163Z,3.70
2019-01-30T12:18:24.781Z,3.80
2019-01-30T12:21:05.455Z,3.70
2019-01-30T12:23:46.199Z,3.70
2019-01-30T12:26:26.804Z,3.70
2019-01-30T12:29:07.420Z,3.70
2019-01-30T12:31:48.440Z,3.70
2019-01-30T12:34:29.203Z,3.70
2019-01-30T12:37:10.160Z,3.70
2019-01-30T12:39:50.636Z,3.70
2019-01-30T12:42:31.721Z,3.70
2019-01-30T12:45:12.340Z,3.70
2019-01-30T12:47:52.898Z,3.70
2019-01-30T12:50:33.583Z,3.70
2019-01-30T12:53:14.456Z,3.70
2019-01-30T12:55:55.140Z,3.70
2019-01-30T12:58:35.580Z,3.70
2019-01-30T13:01:16.047Z,3.70
2019-01-30T13:03:56.736Z,3.70
2019-01-30T13:06:37.132Z,3.60
2019-01-30T13:09:17.923Z,3.60
2019-01-30T13:11:58.637Z,3.60
2019-01-30T13:14:39.401Z,3.60
2019-01-30T13:17:20.024Z,3.50
2019-01-30T13:20:00.880Z,3.50
2019-01-30T13:22:41.576Z,3.50
2019-01-30T13:25:22.440Z,3.40
2019-01-30T13:28:03.412Z,3.40
2019-01-30T13:30:43.970Z,3.30
2019-01-30T13:33:24.076Z,3.30
2019-01-30T13:36:04.922Z,3.20
2019-01-30T13:38:45.544Z,3.20
2019-01-30T13:41:26.479Z,3.20
2019-01-30T13:44:07.020Z,3.20
2019-01-30T13:46:47.831Z,3.10
2019-01-30T13:49:28.552Z,3.10
2019-01-30T13:52:08.948Z,3.00
2019-01-30T13:54:49.740Z,3.00
2019-01-30T13:57:30.636Z,3.00
2019-01-30T14:00:11.296Z,3.00
2019-01-30T14:02:51.728Z,2.40
2019-01-30T14:05:32.420Z,3.00
2019-01-30T14:08:13.029Z,3.00
2019-01-30T14:10:54.160Z,3.00
2019-01-30T14:13:34.889Z,2.90
2019-01-30T14:16:15.673Z,2.90
2019-01-30T14:18:56.166Z,2.90
2019-01-30T14:21:36.991Z,2.90
2019-01-30T14:24:17.801Z,2.80
2019-01-30T14:26:58.981Z,2.80
2019-01-30T14:29:39.886Z,2.70
2019-01-30T14:32:20.456Z,2.70
2019-01-30T14:35:10.537Z,2.70
2019-01-30T14:37:43.561Z,2.60
2019-01-30T14:40:23.966Z,2.60
2019-01-30T14:43:04.559Z,2.50
2019-01-30T14:45:46.220Z,2.50
2019-01-30T14:48:26.692Z,2.40
2019-01-30T14:51:07.517Z,2.40
2019-01-30T14:53:48.318Z,2.40
2019-01-30T14:56:29.606Z,2.40
2019-01-30T14:59:10.148Z,2.40
2019-01-30T15:01:50.396Z,2.40
2019-01-30T15:04:31.230Z,2.40
2019-01-30T15:07:12.512Z,2.40
2019-01-30T15:09:53.709Z,2.40
2019-01-30T15:12:34.155Z,2.40
2019-01-30T15:15:14.360Z,2.50
2019-01-30T15:17:54.984Z,2.50
2019-01-30T15:20:35.423Z,2.50
2019-01-30T15:23:16.756Z,2.50
2019-01-30T15:25:57.504Z,2.50
2019-01-30T15:28:37.924Z,2.50
2019-01-30T15:31:19.064Z,2.50
2019-01-30T15:33:59.692Z,2.50
2019-01-30T15:36:40.036Z,2.40
2019-01-30T15:39:20.995Z,2.40
2019-01-30T15:42:01.532Z,2.40
2019-01-30T15:44:42.035Z,2.40
2019-01-30T15:47:22.772Z,2.40
2019-01-30T15:50:03.653Z,2.30
2019-01-30T15:52:44.636Z,2.30
2019-01-30T15:55:25.160Z,2.30
2019-01-30T15:58:06.303Z,2.30
2019-01-30T16:00:47.597Z,2.30
2019-01-30T16:03:28.268Z,2.30
2019-01-30T16:06:09.259Z,2.30
2019-01-30T16:08:50.192Z,2.30
2019-01-30T16:11:31.077Z,2.30
2019-01-30T16:14:11.803Z,2.30
2019-01-30T16:16:52.381Z,2.30
2019-01-30T16:19:32.656Z,2.30
2019-01-30T16:22:13.391Z,2.40
2019-01-30T16:24:54.484Z,2.40
2019-01-30T16:27:35.012Z,2.40
2019-01-30T16:30:15.807Z,2.30
2019-01-30T16:32:56.295Z,2.30
2019-01-30T16:35:36.979Z,2.30
2019-01-30T16:38:17.433Z,2.30
2019-01-30T16:40:57.920Z,2.30
2019-01-30T16:43:38.528Z,2.30
2019-01-30T16:46:19.220Z,2.30
2019-01-30T16:48:59.436Z,2.30
2019-01-30T16:51:40.373Z,2.20
2019-01-30T16:54:20.878Z,2.20
2019-01-30T16:57:01.187Z,2.20
2019-01-30T16:59:41.836Z,2.20
2019-01-30T17:02:22.680Z,2.20
2019-01-30T17:05:03.401Z,2.20
2019-01-30T17:07:43.652Z,2.20
2019-01-30T17:10:24.547Z,2.30
2019-01-30T17:13:05.545Z,2.30
2019-01-30T17:15:46.495Z,2.30
2019-01-30T17:18:26.985Z,2.30
2019-01-30T17:21:07.772Z,2.30
2019-01-30T17:23:48.463Z,2.30
2019-01-30T17:26:29.157Z,2.30
2019-01-30T17:29:09.904Z,2.30
2019-01-30T17:31:50.120Z,2.40
2019-01-30T17:34:31.236Z,2.40
2019-01-30T17:37:12.016Z,2.40
2019-01-30T17:39:52.641Z,2.40
2019-01-30T17:42:33.556Z,2.30
2019-01-30T17:45:13.750Z,2.30
2019-01-30T17:47:54.434Z,2.30
2019-01-30T17:50:35.524Z,2.30
2019-01-30T17:53:16.648Z,2.20
2019-01-30T17:55:57.040Z,2.20
2019-01-30T17:58:37.843Z,2.20
2019-01-30T18:01:18.392Z,2.20
2019-01-30T18:03:59.124Z,2.30
2019-01-30T18:06:39.395Z,2.30
2019-01-30T18:09:20.080Z,2.30
2019-01-30T18:12:00.288Z,2.30
2019-01-30T18:14:40.640Z,2.30
2019-01-30T18:17:21.284Z,2.30
2019-01-30T18:20:01.681Z,2.30
2019-01-30T18:22:44.588Z,2.10
2019-01-30T18:25:25.476Z,2.30
2019-01-30T18:28:05.619Z,2.30
2019-01-30T18:30:45.888Z,2.30
2019-01-30T18:33:26.472Z,2.30
2019-01-30T18:36:06.760Z,2.30
2019-01-30T18:38:47.312Z,2.20
2019-01-30T18:41:27.656Z,2.20
2019-01-30T18:44:08.012Z,2.10
2019-01-30T18:46:48.824Z,2.10
2019-01-30T18:49:29.663Z,2.00
2019-01-30T18:52:10.195Z,2.00
2019-01-30T18:54:50.503Z,1.90
2019-01-30T18:57:31.043Z,1.80
2019-01-30T19:00:11.375Z,1.80
2019-01-30T19:02:52.396Z,1.80
2019-01-30T19:05:33.140Z,1.80
2019-01-30T19:08:14.095Z,1.80
2019-01-30T19:10:54.724Z,1.80
2019-01-30T19:13:35.235Z,1.80
2019-01-30T19:16:15.719Z,1.80
2019-01-30T19:18:56.741Z,1.80
2019-01-30T19:21:37.592Z,1.90
2019-01-30T19:24:19.831Z,1.90
2019-01-30T19:26:58.777Z,2.00
2019-01-30T19:29:46.768Z,2.00
2019-01-30T19:32:34.480Z,2.00
2019-01-30T19:35:22.463Z,2.00
2019-01-30T19:38:10.519Z,2.00
2019-01-30T19:40:58.237Z,2.00
2019-01-30T19:43:46.225Z,2.10
2019-01-30T19:46:34.276Z,2.00
2019-01-30T19:49:21.999Z,2.10
2019-01-30T19:52:02.673Z,2.00
2019-01-30T19:54:43.248Z,2.00
2019-01-30T19:57:24.125Z,2.00
2019-01-30T20:00:05.252Z,1.90
2019-01-30T20:02:45.965Z,1.90
2019-01-30T20:05:26.568Z,1.90
2019-01-30T20:08:06.912Z,1.90
2019-01-30T20:10:48.209Z,1.90
2019-01-30T20:13:28.677Z,1.90
2019-01-30T20:16:09.247Z,2.00
2019-01-30T20:18:49.704Z,1.90
2019-01-30T20:21:30.580Z,2.00
2019-01-30T20:24:11.716Z,2.00
2019-01-30T20:26:52.444Z,2.00
2019-01-30T20:29:32.716Z,2.00
2019-01-30T20:32:13.552Z,2.10
2019-01-30T20:34:53.711Z,2.10
2019-01-30T20:37:37.538Z,2.10
2019-01-30T20:40:17.593Z,2.10
2019-01-30T20:42:58.318Z,2.10
2019-01-30T20:45:39.387Z,2.10
2019-01-30T20:48:20.548Z,2.20
2019-01-30T20:51:01.202Z,2.20
2019-01-30T20:53:41.666Z,2.20
2019-01-30T20:56:22.076Z,2.20
2019-01-30T20:59:02.577Z,2.20
2019-01-30T21:01:42.956Z,2.20
2019-01-30T21:04:24.024Z,2.20
2019-01-30T21:07:04.557Z,2.20
2019-01-30T21:09:45.244Z,2.20
2019-01-30T21:12:26.605Z,2.10
2019-01-30T21:15:07.125Z,2.10
2019-01-30T21:17:47.992Z,2.10
2019-01-30T21:20:28.664Z,2.10
2019-01-30T21:23:09.294Z,2.10
2019-01-30T21:25:50.153Z,2.00
2019-01-30T21:28:30.737Z,2.00
2019-01-30T21:31:11.427Z,2.00
2019-01-30T21:33:51.872Z,2.00
2019-01-30T21:36:32.592Z,2.00
2019-01-30T21:39:13.072Z,2.00
2019-01-30T21:41:53.765Z,2.00
2019-01-30T21:44:34.134Z,2.00
2019-01-30T21:47:14.407Z,1.90
2019-01-30T21:49:54.659Z,2.00
2019-01-30T21:52:35.381Z,1.90
2019-01-30T21:55:15.803Z,1.90
2019-01-30T21:57:56.485Z,1.80
2019-01-30T22:00:37.276Z,1.80
2019-01-30T22:03:18.974Z,1.70
2019-01-30T22:05:59.449Z,1.60
2019-01-30T22:08:39.902Z,1.50
2019-01-30T22:11:20.260Z,1.50
2019-01-30T22:14:00.632Z,1.40
2019-01-30T22:16:41.196Z,1.40
2019-01-30T22:19:21.836Z,1.40
2019-01-30T22:22:02.326Z,1.30
2019-01-30T22:24:43.032Z,1.20
2019-01-30T22:27:23.832Z,1.20
2019-01-30T22:30:04.478Z,1.10
2019-01-30T22:32:44.827Z,1.10
2019-01-30T22:35:25.221Z,1.00
2019-01-30T22:38:12.683Z,1.00
2019-01-30T22:40:48.415Z,1.00
2019-01-30T22:43:29.640Z,1.00
2019-01-30T22:48:54.433Z,0.90
2019-01-30T22:51:35.030Z,0.80
2019-01-30T22:54:15.213Z,0.80
2019-01-30T22:59:39.777Z,0.70
2019-01-30T23:02:20.431Z,0.70
2019-01-30T23:05:01.729Z,0.70
2019-01-30T23:07:42.470Z,0.70
2019-01-30T23:10:23.164Z,0.60
2019-01-30T23:13:03.863Z,0.60
2019-01-30T23:15:44.986Z,0.70
2019-01-30T23:18:25.437Z,0.70
2019-01-30T23:21:06.476Z,0.70
2019-01-30T23:23:47.089Z,0.60
2019-01-30T23:26:27.396Z,0.60
2019-01-30T23:29:08.280Z,0.60
2019-01-30T23:31:49.123Z,0.60
2019-01-30T23:34:30.116Z,0.50
2019-01-30T23:37:10.746Z,0.50
2019-01-30T23:39:51.336Z,0.50
2019-01-30T23:42:31.840Z,0.40
2019-01-30T23:45:12.237Z,0.40
2019-01-30T23:47:52.844Z,0.30
2019-01-30T23:50:34.016Z,0.20
2019-01-30T23:53:14.972Z,0.10
2019-01-30T23:55:55.802Z,0.10
2019-01-30T23:58:36.240Z,0.10
